LSNO2: Neosho River nr Langley (Spillway)

Data processed at Sat Dec 09 2017 23:12


All information presented herein is the property of the government of the United States of America and may be revised or deleted at any time without prior notice.
Dissemination of this information without the expressed written consent of the Public Affairs Office, Tulsa District U.S. Army Corps of Engineers is strictly prohibited.
These data are gathered electronically and, as presented, have not undergone any form of quality control. These data are not guaranteed to be valid or correct.
Go to home page.
Go to station list.

Upstream stations:

Downstream station:
Previous Day
Next Day
Current Day
    
SHEF ID:       LSNO2     Neosho River (spillway) near Lan
STATION TYPE:  

                STAGE  RIV-FLOW  BAT-LOAD
                   ft       cfs      volt
              Ccp-Rev   Ccp-Rev   Ccp-Rev
(US/Central)
12/07 00:00     12.80     15600     12.65
12/07 01:00     12.67     15015     12.65
12/07 02:00     12.61     14745     12.65
12/07 03:00     12.73     15285     12.65
12/07 04:00     12.68     15060     12.57
12/07 05:00     12.89     16005     12.57
12/07 06:00     12.69     15105     12.57
12/07 07:00     12.75     15375     12.57
12/07 08:00     12.83     15735     12.49
12/07 09:00     12.83     15735     12.65
12/07 10:00     12.68     15060     13.05
12/07 11:00     12.67     15015     13.21
12/07 12:00     12.64     14880     13.37
12/07 13:00     12.81     15645     13.44
12/07 14:00     12.57     14565     13.53
12/07 15:00     12.49     14205     13.44
12/07 16:00     12.61     14745     13.29
12/07 17:00     12.52     14340     13.05
12/07 18:00     12.76     15420     12.89
12/07 19:00     12.81     15645     12.81
12/07 20:00     12.84     15780     12.73
12/07 21:00     12.79     15555     12.73
12/07 22:00     12.81     15645     12.65
12/07 23:00     12.64     14880     12.65